createdAt,value
2022-11-07T00:01:48.043Z,1.73
2022-11-07T00:04:16.461Z,1.87
2022-11-07T00:06:44.136Z,2.12
2022-11-07T00:09:12.203Z,2.10
2022-11-07T00:11:39.971Z,2.13
2022-11-07T00:14:08.426Z,2.15
2022-11-07T00:16:36.298Z,2.23
2022-11-07T00:19:04.296Z,2.41
2022-11-07T00:21:32.062Z,2.51
2022-11-07T00:24:00.139Z,2.60
2022-11-07T00:26:28.016Z,2.66
2022-11-07T00:28:56.434Z,2.92
2022-11-07T00:31:24.151Z,3.05
2022-11-07T00:33:52.594Z,3.25
2022-11-07T00:36:23.651Z,3.15
2022-11-07T00:38:52.048Z,3.08
2022-11-07T00:41:20.044Z,3.20
2022-11-07T00:43:48.359Z,3.43
2022-11-07T00:46:17.089Z,3.39
2022-11-07T00:48:45.579Z,3.53
2022-11-07T00:51:18.801Z,3.83
2022-11-07T00:53:47.604Z,3.89
2022-11-07T00:56:18.904Z,4.07
2022-11-07T00:58:47.613Z,4.01
2022-11-07T01:01:17.989Z,3.91
2022-11-07T01:04:05.033Z,3.76
2022-11-07T01:06:35.629Z,3.75
2022-11-07T01:09:04.163Z,3.96
2022-11-07T01:11:31.956Z,3.99
2022-11-07T01:14:01.817Z,4.06
2022-11-07T01:16:30.849Z,4.31
2022-11-07T01:18:58.838Z,4.27
2022-11-07T01:21:26.473Z,4.21
2022-11-07T01:23:54.606Z,4.25
2022-11-07T01:26:22.319Z,4.30
2022-11-07T01:28:50.232Z,4.29
2022-11-07T01:31:19.217Z,4.39
2022-11-07T01:33:47.208Z,4.56
2022-11-07T01:36:17.707Z,4.52
2022-11-07T01:38:51.337Z,4.73
2022-11-07T01:41:25.793Z,4.68
2022-11-07T01:44:08.160Z,4.73
2022-11-07T01:46:47.743Z,4.88
2022-11-07T01:49:26.014Z,4.86
2022-11-07T01:52:06.013Z,4.93
2022-11-07T01:55:01.372Z,5.04
2022-11-07T01:57:45.185Z,5.11
2022-11-07T02:00:15.768Z,5.17
2022-11-07T02:02:46.841Z,5.26
2022-11-07T02:05:21.451Z,5.26
2022-11-07T02:07:49.376Z,5.27
2022-11-07T02:10:18.506Z,5.30
2022-11-07T02:12:46.637Z,5.44
2022-11-07T02:15:14.583Z,5.48
2022-11-07T02:17:42.322Z,5.54
2022-11-07T02:20:11.084Z,5.71
2022-11-07T02:22:49.336Z,5.65
2022-11-07T02:25:19.711Z,5.75
2022-11-07T02:27:51.452Z,5.83
2022-11-07T02:30:22.906Z,5.98
2022-11-07T02:32:50.597Z,5.91
2022-11-07T02:35:44.016Z,5.95
2022-11-07T02:38:32.662Z,5.98
2022-11-07T02:41:21.454Z,6.01
2022-11-07T02:44:06.476Z,6.09
2022-11-07T02:46:35.303Z,6.10
2022-11-07T02:49:02.984Z,6.19
2022-11-07T02:51:30.908Z,6.18
2022-11-07T02:53:58.662Z,6.23
2022-11-07T02:56:26.803Z,6.32
2022-11-07T02:58:54.509Z,6.24
2022-11-07T03:01:23.068Z,6.34
2022-11-07T03:03:51.614Z,6.31
2022-11-07T03:06:23.640Z,6.43
2022-11-07T03:08:51.745Z,6.56
2022-11-07T03:11:20.198Z,6.62
2022-11-07T03:13:49.633Z,6.56
2022-11-07T03:16:19.555Z,6.64
2022-11-07T03:18:47.356Z,6.70
2022-11-07T03:21:15.395Z,6.89
2022-11-07T03:23:43.049Z,6.90
2022-11-07T03:26:11.071Z,6.81
2022-11-07T03:28:38.732Z,6.89
2022-11-07T03:31:06.754Z,6.86
2022-11-07T03:33:34.368Z,6.98
2022-11-07T03:36:02.349Z,6.82
2022-11-07T03:38:30.347Z,6.98
2022-11-07T03:40:58.233Z,7.12
2022-11-07T03:43:26.001Z,6.98
2022-11-07T03:45:53.941Z,7.10
2022-11-07T03:48:21.610Z,7.12
2022-11-07T03:50:49.576Z,7.01
2022-11-07T03:53:22.171Z,7.07
2022-11-07T03:55:55.765Z,7.29
2022-11-07T03:58:25.072Z,7.24
2022-11-07T04:00:53.160Z,7.22
2022-11-07T04:03:20.773Z,7.25
2022-11-07T04:05:48.770Z,7.37
2022-11-07T04:08:16.804Z,7.29
2022-11-07T04:10:44.810Z,7.26
2022-11-07T04:13:31.292Z,7.47
2022-11-07T04:16:17.979Z,7.52
2022-11-07T04:18:45.721Z,7.43
2022-11-07T04:21:13.681Z,7.39
2022-11-07T04:23:41.335Z,7.57
2022-11-07T04:26:27.953Z,7.50
2022-11-07T04:28:55.647Z,7.53
2022-11-07T04:31:23.649Z,7.67
2022-11-07T04:33:52.001Z,7.51
2022-11-07T04:36:20.215Z,7.55
2022-11-07T04:38:47.895Z,7.62
2022-11-07T04:41:21.127Z,7.64
2022-11-07T04:43:49.031Z,7.59
2022-11-07T04:46:17.463Z,7.67
2022-11-07T04:48:45.383Z,7.68
2022-11-07T04:51:20.377Z,7.70
2022-11-07T04:53:48.031Z,7.77
2022-11-07T04:56:15.997Z,7.71
2022-11-07T04:58:43.616Z,7.87
2022-11-07T05:01:11.567Z,7.85
2022-11-07T05:03:42.081Z,7.77
2022-11-07T05:06:14.389Z,7.79
2022-11-07T05:08:42.108Z,7.86
2022-11-07T05:11:10.232Z,7.92
2022-11-07T05:13:37.936Z,7.94
2022-11-07T05:16:06.212Z,7.83
2022-11-07T05:18:33.896Z,7.95
2022-11-07T05:21:01.845Z,8.00
2022-11-07T05:23:29.455Z,7.95
2022-11-07T05:25:57.421Z,8.04
2022-11-07T05:28:38.247Z,7.94
2022-11-07T05:31:08.560Z,7.97
2022-11-07T05:33:36.398Z,8.12
2022-11-07T05:36:21.776Z,8.15
2022-11-07T05:38:51.723Z,8.10
2022-11-07T05:41:21.605Z,8.11
2022-11-07T05:43:49.491Z,8.23
2022-11-07T05:46:17.370Z,8.13
2022-11-07T05:48:44.995Z,8.11
2022-11-07T05:51:12.887Z,8.09
2022-11-07T05:53:40.675Z,8.21
2022-11-07T05:56:08.645Z,8.19
2022-11-07T05:58:36.485Z,8.27
2022-11-07T06:01:06.082Z,8.47
2022-11-07T06:03:34.273Z,8.33
2022-11-07T06:06:02.211Z,8.49
2022-11-07T06:08:29.858Z,8.64
2022-11-07T06:10:57.808Z,8.63
2022-11-07T06:13:25.470Z,8.62
2022-11-07T06:15:53.446Z,8.80
2022-11-07T06:18:22.324Z,8.73
2022-11-07T06:20:50.267Z,8.79
2022-11-07T06:23:18.524Z,8.71
2022-11-07T06:25:47.373Z,8.85
2022-11-07T06:28:16.022Z,8.88
2022-11-07T06:30:44.711Z,8.92
2022-11-07T06:33:15.913Z,8.98
2022-11-07T06:35:44.712Z,9.11
2022-11-07T06:38:14.002Z,9.23
2022-11-07T06:40:42.859Z,9.13
2022-11-07T06:43:20.694Z,9.11
2022-11-07T06:45:48.966Z,9.09
2022-11-07T06:48:16.822Z,9.13
2022-11-07T06:50:44.967Z,9.09
2022-11-07T06:53:14.654Z,9.20
2022-11-07T06:55:43.229Z,9.35
2022-11-07T06:58:11.100Z,9.38
2022-11-07T07:00:39.131Z,9.31
2022-11-07T07:03:07.055Z,9.28
2022-11-07T07:05:35.640Z,9.28
2022-11-07T07:08:05.028Z,9.26
2022-11-07T07:10:39.276Z,9.40
2022-11-07T07:13:07.152Z,9.34
2022-11-07T07:15:49.744Z,9.32
2022-11-07T07:18:19.505Z,9.38
2022-11-07T07:20:48.888Z,9.48
2022-11-07T07:23:21.516Z,9.45
2022-11-07T07:25:49.887Z,9.49
2022-11-07T07:28:17.838Z,9.43
2022-11-07T07:30:51.381Z,9.51
2022-11-07T07:33:19.928Z,9.53
2022-11-07T07:35:47.839Z,9.62
2022-11-07T07:38:15.781Z,9.64
2022-11-07T07:40:43.757Z,9.72
2022-11-07T07:43:11.730Z,9.75
2022-11-07T07:45:39.824Z,9.92
2022-11-07T07:48:07.644Z,9.89
2022-11-07T07:50:35.627Z,9.82
2022-11-07T07:53:08.646Z,9.87
2022-11-07T07:55:36.987Z,9.89
2022-11-07T07:58:04.635Z,9.78
2022-11-07T08:00:32.717Z,9.79
2022-11-07T08:03:09.666Z,9.85
2022-11-07T08:05:38.648Z,9.83
2022-11-07T08:08:08.339Z,9.85
2022-11-07T08:10:43.636Z,10.01
2022-11-07T08:13:11.419Z,10.15
2022-11-07T08:15:39.428Z,10.06
2022-11-07T08:18:07.427Z,10.15
2022-11-07T08:20:35.343Z,10.26
2022-11-07T08:23:09.830Z,10.37
2022-11-07T08:25:41.228Z,10.43
2022-11-07T08:28:09.123Z,10.63
2022-11-07T08:30:37.079Z,10.63
2022-11-07T08:33:05.022Z,10.72
2022-11-07T08:35:36.884Z,10.80
2022-11-07T08:38:07.311Z,11.09
2022-11-07T08:40:35.200Z,11.19
2022-11-07T08:43:02.884Z,11.28
2022-11-07T08:45:30.763Z,11.45
2022-11-07T08:47:59.849Z,11.43
2022-11-07T08:50:28.199Z,11.59
2022-11-07T08:53:01.223Z,11.50
2022-11-07T08:55:30.786Z,11.71
2022-11-07T08:58:03.505Z,11.86
2022-11-07T09:00:32.356Z,11.78
2022-11-07T09:05:58.521Z,11.90
2022-11-07T09:08:26.407Z,11.94
2022-11-07T09:10:54.414Z,12.04
2022-11-07T09:13:22.073Z,12.13
2022-11-07T09:15:51.867Z,12.09
2022-11-07T09:18:20.335Z,12.29
2022-11-07T09:20:48.246Z,12.32
2022-11-07T09:23:16.296Z,12.17
2022-11-07T09:25:44.883Z,12.24
2022-11-07T09:28:13.346Z,12.53
2022-11-07T09:30:41.644Z,12.63
2022-11-07T09:33:09.563Z,12.70
2022-11-07T09:35:37.544Z,12.77
2022-11-07T09:38:05.808Z,12.77
2022-11-07T09:40:47.683Z,12.89
2022-11-07T09:43:30.704Z,12.96
2022-11-07T09:46:16.884Z,12.99
2022-11-07T09:49:05.956Z,12.89
2022-11-07T09:51:38.220Z,12.89
2022-11-07T09:54:13.845Z,12.68
2022-11-07T09:56:43.733Z,12.84
2022-11-07T09:59:24.794Z,12.98
2022-11-07T10:01:52.933Z,12.99
2022-11-07T10:04:26.249Z,13.04
2022-11-07T10:07:27.996Z,13.03
2022-11-07T10:10:06.458Z,13.03
2022-11-07T10:12:44.590Z,12.71
2022-11-07T10:15:19.235Z,12.67
2022-11-07T10:18:37.443Z,12.81
2022-11-07T10:21:42.022Z,13.02
2022-11-07T10:24:15.774Z,13.11
2022-11-07T10:26:45.630Z,13.25
2022-11-07T10:29:19.438Z,13.32
2022-11-07T10:31:57.118Z,13.10
2022-11-07T10:34:27.956Z,13.23
2022-11-07T10:36:55.712Z,13.26
2022-11-07T10:39:23.662Z,13.16
2022-11-07T10:42:04.579Z,13.09
2022-11-07T10:44:33.875Z,12.94
2022-11-07T10:47:03.708Z,12.95
2022-11-07T10:49:33.074Z,12.96
2022-11-07T10:52:16.924Z,12.99
2022-11-07T10:54:45.230Z,13.16
2022-11-07T10:57:19.013Z,13.39
2022-11-07T10:59:55.593Z,13.45
2022-11-07T11:02:32.384Z,13.34
2022-11-07T11:05:02.672Z,13.21
2022-11-07T11:07:38.855Z,13.31
2022-11-07T11:10:23.697Z,13.42
2022-11-07T11:12:52.012Z,13.35
2022-11-07T11:15:28.898Z,13.07
2022-11-07T11:18:14.984Z,13.20
2022-11-07T11:21:06.823Z,12.98
2022-11-07T11:23:42.203Z,13.05
2022-11-07T11:26:17.295Z,12.90
2022-11-07T11:28:50.073Z,12.80
2022-11-07T11:31:44.130Z,12.90
2022-11-07T11:34:15.753Z,12.96
2022-11-07T11:37:00.688Z,13.06
2022-11-07T11:39:47.989Z,12.81
2022-11-07T11:42:42.255Z,12.92
2022-11-07T11:45:46.071Z,13.05
2022-11-07T11:48:30.135Z,13.24
2022-11-07T11:51:06.438Z,13.31
2022-11-07T11:53:34.462Z,13.29
2022-11-07T11:56:07.908Z,13.27
2022-11-07T11:58:58.664Z,13.28
2022-11-07T12:01:53.845Z,13.20
2022-11-07T12:04:28.843Z,13.13
2022-11-07T12:07:25.582Z,12.98
2022-11-07T12:10:41.054Z,13.03
2022-11-07T12:13:34.593Z,13.16
2022-11-07T12:16:21.254Z,13.09
2022-11-07T12:19:28.588Z,13.06
2022-11-07T12:22:11.008Z,13.10
2022-11-07T12:24:45.747Z,13.08
2022-11-07T12:27:32.749Z,13.13
2022-11-07T12:30:24.473Z,13.13
2022-11-07T12:33:14.474Z,12.96
2022-11-07T12:36:00.332Z,13.05
2022-11-07T12:38:54.532Z,12.90
2022-11-07T12:41:57.643Z,12.85
2022-11-07T12:45:01.996Z,13.02
2022-11-07T12:47:32.640Z,13.06
2022-11-07T12:50:19.963Z,13.17
2022-11-07T12:53:00.602Z,13.24
2022-11-07T12:55:52.228Z,13.45
2022-11-07T12:58:28.387Z,13.46
2022-11-07T13:00:57.315Z,13.39
2022-11-07T13:03:31.463Z,13.26
2022-11-07T13:06:18.567Z,13.15
2022-11-07T13:09:03.647Z,12.78
2022-11-07T13:12:13.328Z,12.51
2022-11-07T13:14:42.644Z,12.33
2022-11-07T13:17:27.708Z,12.37
2022-11-07T13:20:30.795Z,12.46
2022-11-07T13:23:00.855Z,12.40
2022-11-07T13:25:33.280Z,12.52
2022-11-07T13:28:23.611Z,12.63
2022-11-07T13:31:02.424Z,12.84
2022-11-07T13:33:36.257Z,12.83
2022-11-07T13:36:23.895Z,12.76
2022-11-07T13:38:56.827Z,12.57
2022-11-07T13:41:25.039Z,12.36
2022-11-07T13:44:02.062Z,12.25
2022-11-07T13:46:42.959Z,12.17
2022-11-07T13:49:27.187Z,11.98
2022-11-07T13:52:00.577Z,11.95
2022-11-07T13:54:55.042Z,11.96
2022-11-07T13:57:37.698Z,11.77
2022-11-07T14:00:14.438Z,11.78
2022-11-07T14:02:54.173Z,11.73
2022-11-07T14:05:25.167Z,11.73
2022-11-07T14:07:59.691Z,11.71
2022-11-07T14:10:34.220Z,11.67
2022-11-07T14:13:01.772Z,11.69
2022-11-07T14:15:30.649Z,11.43
2022-11-07T14:17:58.591Z,11.34
2022-11-07T14:20:26.799Z,11.23
2022-11-07T14:22:57.402Z,11.23
2022-11-07T14:25:32.445Z,11.30
2022-11-07T14:28:01.253Z,11.34
2022-11-07T14:30:31.846Z,11.32
2022-11-07T14:33:02.271Z,11.25
2022-11-07T14:35:35.191Z,11.21
2022-11-07T14:38:17.069Z,11.16
2022-11-07T14:40:46.668Z,11.15
2022-11-07T14:43:17.834Z,11.00
2022-11-07T14:46:11.427Z,10.98
2022-11-07T14:48:35.506Z,10.93
2022-11-07T14:51:05.428Z,11.02
2022-11-07T14:54:01.889Z,10.94
2022-11-07T14:56:34.482Z,10.94
2022-11-07T14:59:02.356Z,11.00
2022-11-07T15:01:33.267Z,11.04
2022-11-07T15:04:15.381Z,11.00
2022-11-07T15:06:45.116Z,10.89
2022-11-07T15:09:12.752Z,10.86
2022-11-07T15:11:43.962Z,10.89
2022-11-07T15:14:32.567Z,11.07
2022-11-07T15:17:04.157Z,11.09
2022-11-07T15:19:34.579Z,11.04
2022-11-07T15:22:04.520Z,10.93
2022-11-07T15:24:46.284Z,10.86
2022-11-07T15:27:14.127Z,10.85
2022-11-07T15:29:54.768Z,10.83
2022-11-07T15:32:34.949Z,10.90
2022-11-07T15:35:42.016Z,10.79
2022-11-07T15:38:02.331Z,10.78
2022-11-07T15:40:30.423Z,10.81
2022-11-07T15:42:58.365Z,11.02
2022-11-07T15:45:26.107Z,11.02
2022-11-07T15:47:54.165Z,10.94
2022-11-07T15:50:25.940Z,10.98
2022-11-07T15:52:54.526Z,11.21
2022-11-07T15:55:23.806Z,11.08
2022-11-07T15:57:54.044Z,10.96
2022-11-07T16:00:24.679Z,10.95
2022-11-07T16:02:53.171Z,10.98
2022-11-07T16:05:21.036Z,11.12
2022-11-07T16:07:49.402Z,11.16
2022-11-07T16:10:19.489Z,11.07
2022-11-07T16:12:48.455Z,11.04
2022-11-07T16:15:18.332Z,11.02
2022-11-07T16:17:46.582Z,10.98
2022-11-07T16:20:22.665Z,10.93
2022-11-07T16:22:51.528Z,10.99
2022-11-07T16:25:23.278Z,10.88
2022-11-07T16:27:53.867Z,10.93
2022-11-07T16:30:22.329Z,10.91
2022-11-07T16:32:50.382Z,10.91
2022-11-07T16:35:18.259Z,10.92
2022-11-07T16:37:46.167Z,10.91
2022-11-07T16:40:19.537Z,10.87
2022-11-07T16:42:47.674Z,10.93
2022-11-07T16:45:19.153Z,10.83
2022-11-07T16:47:48.264Z,10.80
2022-11-07T16:50:17.044Z,10.75
2022-11-07T16:52:45.181Z,10.73
2022-11-07T16:55:17.684Z,10.75
2022-11-07T16:57:46.133Z,10.80
2022-11-07T17:00:17.107Z,10.87
2022-11-07T17:02:45.439Z,10.84
2022-11-07T17:05:13.416Z,10.81
2022-11-07T17:07:41.453Z,10.85
2022-11-07T17:10:15.756Z,10.86
2022-11-07T17:12:43.858Z,10.80
2022-11-07T17:15:11.960Z,10.76
2022-11-07T17:17:40.298Z,10.78
2022-11-07T17:20:34.200Z,10.68
2022-11-07T17:23:06.819Z,10.73
2022-11-07T17:25:35.858Z,10.78
2022-11-07T17:28:04.039Z,10.77
2022-11-07T17:30:33.566Z,10.74
2022-11-07T17:33:03.547Z,10.66
2022-11-07T17:35:32.991Z,10.66
2022-11-07T17:38:01.140Z,10.58
2022-11-07T17:40:31.300Z,10.66
2022-11-07T17:43:00.049Z,10.56
2022-11-07T17:45:28.556Z,10.61
2022-11-07T17:47:56.607Z,10.63
2022-11-07T17:50:24.402Z,10.65
2022-11-07T17:52:52.508Z,10.71
2022-11-07T17:55:21.185Z,10.68
2022-11-07T17:57:49.226Z,10.59
2022-11-07T18:00:20.340Z,10.66
2022-11-07T18:02:50.723Z,10.66
2022-11-07T18:05:20.551Z,10.69
2022-11-07T18:07:48.531Z,10.60
2022-11-07T18:10:16.698Z,10.61
2022-11-07T18:12:45.106Z,10.62
2022-11-07T18:15:13.081Z,10.64
2022-11-07T18:17:41.628Z,10.60
2022-11-07T18:20:10.905Z,10.60
2022-11-07T18:22:39.187Z,10.57
2022-11-07T18:25:08.335Z,10.53
2022-11-07T18:27:36.785Z,10.56
2022-11-07T18:30:07.652Z,10.55
2022-11-07T18:32:37.312Z,10.54
2022-11-07T18:35:06.121Z,10.52
2022-11-07T18:37:34.470Z,10.44
2022-11-07T18:40:02.174Z,10.42
2022-11-07T18:42:31.048Z,10.49
2022-11-07T18:44:58.694Z,10.47
2022-11-07T18:47:26.781Z,10.57
2022-11-07T18:49:57.340Z,10.47
2022-11-07T18:52:25.888Z,10.50
2022-11-07T18:54:54.222Z,10.48
2022-11-07T18:57:22.251Z,10.39
2022-11-07T18:59:49.976Z,10.32
2022-11-07T19:02:18.042Z,10.35
2022-11-07T19:04:45.840Z,10.49
2022-11-07T19:07:13.799Z,10.38
2022-11-07T19:09:41.504Z,10.23
2022-11-07T19:12:09.408Z,10.15
2022-11-07T19:14:37.383Z,10.08
2022-11-07T19:17:05.299Z,9.99
2022-11-07T19:19:33.684Z,10.01
2022-11-07T19:22:01.756Z,9.91
2022-11-07T19:24:29.385Z,9.92
2022-11-07T19:26:57.539Z,9.80
2022-11-07T19:29:26.015Z,9.77
2022-11-07T19:31:54.034Z,9.65
2022-11-07T19:34:21.765Z,9.67
2022-11-07T19:36:49.843Z,9.50
2022-11-07T19:39:17.653Z,9.54
2022-11-07T19:41:45.693Z,9.57
2022-11-07T19:44:13.433Z,9.58
2022-11-07T19:46:41.431Z,9.58
2022-11-07T19:49:09.466Z,9.72
2022-11-07T19:51:37.761Z,9.78
2022-11-07T19:54:07.547Z,9.70
2022-11-07T19:56:35.575Z,9.89
2022-11-07T19:59:03.274Z,9.92
2022-11-07T20:01:34.044Z,9.96
2022-11-07T20:04:02.978Z,9.82
2022-11-07T20:06:35.656Z,9.85
2022-11-07T20:09:06.620Z,9.85
2022-11-07T20:11:34.860Z,9.95
2022-11-07T20:14:03.921Z,10.00
2022-11-07T20:16:33.801Z,10.01
2022-11-07T20:19:02.157Z,9.82
2022-11-07T20:21:31.142Z,9.78
2022-11-07T20:24:00.127Z,9.86
2022-11-07T20:26:30.154Z,9.75
2022-11-07T20:28:58.598Z,9.76
2022-11-07T20:31:29.560Z,9.83
2022-11-07T20:34:05.769Z,9.83
2022-11-07T20:36:34.461Z,9.83
2022-11-07T20:39:03.093Z,9.86
2022-11-07T20:41:31.141Z,9.95
2022-11-07T20:44:04.227Z,9.93
2022-11-07T20:46:35.313Z,10.04
2022-11-07T20:49:04.831Z,9.88
2022-11-07T20:51:33.275Z,9.98
2022-11-07T20:54:01.243Z,9.80
2022-11-07T20:56:29.999Z,9.81
2022-11-07T20:58:58.420Z,9.81
2022-11-07T21:01:36.093Z,9.75
2022-11-07T21:04:09.540Z,9.68
2022-11-07T21:06:37.577Z,9.56
2022-11-07T21:09:05.383Z,9.38
2022-11-07T21:11:34.050Z,9.29
2022-11-07T21:14:01.710Z,9.19
2022-11-07T21:16:30.028Z,9.14
2022-11-07T21:18:57.732Z,9.07
2022-11-07T21:21:27.807Z,9.00
2022-11-07T21:23:57.683Z,9.06
2022-11-07T21:26:30.228Z,8.86
2022-11-07T21:28:58.552Z,8.79
2022-11-07T21:31:30.237Z,8.80
2022-11-07T21:33:58.537Z,8.71
2022-11-07T21:36:30.824Z,8.62
2022-11-07T21:38:59.967Z,8.72
2022-11-07T21:41:29.550Z,8.82
2022-11-07T21:43:58.516Z,8.76
2022-11-07T21:46:29.223Z,8.91
2022-11-07T21:48:57.871Z,8.94
2022-11-07T21:51:28.401Z,9.02
2022-11-07T21:53:57.276Z,8.97
2022-11-07T21:56:28.184Z,8.97
2022-11-07T21:58:59.319Z,8.86
2022-11-07T22:01:28.606Z,8.85
2022-11-07T22:04:06.588Z,8.73
2022-11-07T22:06:42.031Z,8.66
2022-11-07T22:09:12.923Z,8.57
2022-11-07T22:11:40.952Z,8.49
2022-11-07T22:14:09.284Z,8.49
2022-11-07T22:16:37.744Z,8.47
2022-11-07T22:19:11.203Z,8.63
2022-11-07T22:21:41.327Z,8.74
2022-11-07T22:24:10.019Z,8.75
2022-11-07T22:26:38.007Z,8.84
2022-11-07T22:29:05.800Z,8.74
2022-11-07T22:31:34.002Z,8.70
2022-11-07T22:34:02.365Z,8.69
2022-11-07T22:36:30.555Z,8.50
2022-11-07T22:38:59.032Z,8.31
2022-11-07T22:41:27.949Z,8.16
2022-11-07T22:43:56.879Z,7.97
2022-11-07T22:46:28.210Z,8.00
2022-11-07T22:48:57.367Z,7.88
2022-11-07T22:51:28.516Z,7.80
2022-11-07T22:53:57.203Z,7.79
2022-11-07T22:56:25.369Z,7.72
2022-11-07T22:58:53.382Z,7.69
2022-11-07T23:01:29.897Z,7.75
2022-11-07T23:03:58.925Z,7.68
2022-11-07T23:06:29.093Z,7.51
2022-11-07T23:08:58.095Z,7.37
2022-11-07T23:11:48.603Z,7.59
2022-11-07T23:14:19.575Z,7.47
2022-11-07T23:16:50.933Z,7.42
2022-11-07T23:19:22.554Z,7.26
2022-11-07T23:21:52.332Z,7.42
2022-11-07T23:24:20.948Z,7.52
2022-11-07T23:26:49.388Z,7.68
2022-11-07T23:29:20.341Z,7.94
2022-11-07T23:31:49.815Z,8.06
2022-11-07T23:34:18.791Z,8.06
2022-11-07T23:36:49.481Z,8.12
2022-11-07T23:39:19.467Z,8.21
2022-11-07T23:41:47.959Z,8.27
2022-11-07T23:44:16.154Z,8.24
2022-11-07T23:47:03.722Z,8.19
2022-11-07T23:49:50.234Z,8.16
2022-11-07T23:52:18.806Z,8.19
2022-11-07T23:55:05.024Z,8.30
2022-11-07T23:57:57.060Z,8.37
